createdAt,value
2022-09-26T00:00:25.563Z,29.600000
2022-09-26T00:05:28.175Z,28.466667
2022-09-26T00:10:30.292Z,28.200000
2022-09-26T00:15:32.661Z,29.733333
2022-09-26T00:20:35.957Z,30.466667
2022-09-26T00:25:18.190Z,32.666667
2022-09-26T00:30:21.508Z,31.866667
2022-09-26T00:35:24.873Z,30.857143
2022-09-26T00:40:27.544Z,30.866667
2022-09-26T00:45:29.866Z,31.866667
2022-09-26T00:50:32.872Z,31.066667
2022-09-26T00:55:35.674Z,31.000000
2022-09-26T01:00:18.124Z,33.800000
2022-09-26T01:05:21.695Z,34.266667
2022-09-26T01:10:24.370Z,34.357143
2022-09-26T01:15:26.988Z,35.733333
2022-09-26T01:20:41.924Z,36.466667
2022-09-26T01:25:32.408Z,37.466667
2022-09-26T01:30:35.360Z,38.400000
2022-09-26T01:35:18.554Z,40.533333
2022-09-26T01:40:21.064Z,41.400000
2022-09-26T01:45:23.652Z,43.000000
2022-09-26T01:50:26.448Z,43.800000
2022-09-26T01:55:28.599Z,44.400000
2022-09-26T02:00:30.849Z,43.000000
2022-09-26T02:05:34.400Z,43.800000
2022-09-26T02:10:16.226Z,44.733333
2022-09-26T02:15:18.537Z,45.000000
2022-09-26T02:20:21.791Z,45.000000
2022-09-26T02:25:24.302Z,46.214286
2022-09-26T02:30:26.581Z,47.933333
2022-09-26T02:35:30.040Z,48.333333
2022-09-26T02:40:32.683Z,49.133333
2022-09-26T02:45:35.056Z,49.800000
2022-09-26T02:50:17.323Z,52.866667
2022-09-26T02:55:19.656Z,55.066667
2022-09-26T03:00:22.270Z,59.333333
2022-09-26T03:05:24.844Z,59.928571
2022-09-26T03:10:27.329Z,59.000000
2022-09-26T03:15:29.493Z,57.133333
2022-09-26T03:20:32.281Z,56.666667
2022-09-26T03:25:34.812Z,57.333333
2022-09-26T03:30:16.788Z,56.866667
2022-09-26T03:35:19.711Z,56.266667
2022-09-26T03:40:22.435Z,54.714286
2022-09-26T03:45:24.864Z,55.066667
2022-09-26T03:50:27.741Z,58.200000
2022-09-26T03:55:29.959Z,57.133333
2022-09-26T04:00:32.399Z,56.600000
2022-09-26T04:05:35.979Z,56.733333
2022-09-26T04:10:17.997Z,55.666667
2022-09-26T04:15:20.907Z,55.666667
2022-09-26T04:20:23.573Z,57.071429
2022-09-26T04:25:26.128Z,56.800000
2022-09-26T04:30:28.320Z,56.266667
2022-09-26T04:35:31.549Z,57.266667
2022-09-26T04:40:34.692Z,57.200000
2022-09-26T04:45:16.292Z,56.333333
2022-09-26T04:50:19.323Z,56.533333
2022-09-26T04:55:21.441Z,56.733333
2022-09-26T05:00:23.842Z,57.500000
2022-09-26T05:05:26.384Z,58.400000
2022-09-26T05:10:29.040Z,59.000000
2022-09-26T05:15:32.997Z,58.400000
2022-09-26T05:20:16.233Z,57.533333
2022-09-26T05:25:19.827Z,57.333333
2022-09-26T05:30:22.153Z,58.000000
2022-09-26T05:35:25.506Z,58.866667
2022-09-26T05:40:28.059Z,59.733333
2022-09-26T05:45:30.944Z,60.600000
2022-09-26T05:50:34.518Z,61.333333
2022-09-26T05:55:16.693Z,59.800000
2022-09-26T06:00:19.189Z,58.133333
2022-09-26T06:05:22.520Z,58.933333
2022-09-26T06:10:24.164Z,59.571429
2022-09-26T06:15:26.605Z,60.466667
2022-09-26T06:20:29.293Z,61.600000
2022-09-26T06:25:31.410Z,61.000000
2022-09-26T06:30:33.786Z,60.533333
2022-09-26T06:35:36.546Z,61.600000
2022-09-26T06:40:18.730Z,62.733333
2022-09-26T06:45:33.023Z,62.800000
2022-09-26T06:50:23.328Z,61.785714
2022-09-26T06:55:25.521Z,60.666667
2022-09-26T07:00:28.213Z,60.000000
2022-09-26T07:05:30.440Z,60.200000
2022-09-26T07:10:32.948Z,60.800000
2022-09-26T07:15:35.328Z,61.133333
2022-09-26T07:20:17.214Z,62.600000
2022-09-26T07:25:19.842Z,63.000000
2022-09-26T07:30:21.833Z,63.933333
2022-09-26T07:35:24.443Z,64.500000
2022-09-26T07:40:26.825Z,66.133333
2022-09-26T07:45:30.111Z,64.066667
2022-09-26T07:50:32.629Z,63.066667
2022-09-26T07:55:35.612Z,62.066667
2022-09-26T08:00:18.688Z,62.000000
2022-09-26T08:05:21.284Z,62.533333
2022-09-26T08:10:23.990Z,64.214286
2022-09-26T08:15:26.114Z,64.666667
2022-09-26T08:20:32.173Z,65.000000
2022-09-26T08:25:30.796Z,65.000000
2022-09-26T08:30:33.092Z,64.866667
2022-09-26T08:35:35.309Z,64.400000
2022-09-26T08:40:17.920Z,64.000000
2022-09-26T08:45:19.984Z,65.066667
2022-09-26T08:50:22.604Z,67.285714
2022-09-26T08:55:24.929Z,68.133333
2022-09-26T09:00:27.225Z,68.933333
2022-09-26T09:05:29.718Z,69.800000
2022-09-26T09:10:32.094Z,71.333333
2022-09-26T09:15:34.274Z,74.066667
2022-09-26T09:20:16.552Z,75.600000
2022-09-26T09:25:19.043Z,76.866667
2022-09-26T09:30:21.481Z,77.400000
2022-09-26T09:35:23.783Z,77.071429
2022-09-26T09:40:26.303Z,77.466667
2022-09-26T09:45:29.000Z,78.600000
2022-09-26T09:50:31.162Z,78.933333
2022-09-26T09:55:33.443Z,73.200000
2022-09-26T10:00:16.302Z,69.666667
2022-09-26T10:05:20.063Z,70.200000
2022-09-26T10:10:23.119Z,68.214286
2022-09-26T10:15:25.893Z,65.800000
2022-09-26T10:20:28.635Z,66.200000
2022-09-26T10:25:30.762Z,66.133333
2022-09-26T10:30:33.567Z,66.466667
2022-09-26T10:35:35.699Z,68.333333
2022-09-26T10:40:17.997Z,68.466667
2022-09-26T10:45:19.948Z,68.866667
2022-09-26T10:50:22.582Z,69.357143
2022-09-26T10:55:24.883Z,70.400000
2022-09-26T11:00:27.307Z,71.266667
2022-09-26T11:05:29.654Z,73.866667
2022-09-26T11:10:31.948Z,75.000000
2022-09-26T11:15:34.646Z,75.000000
2022-09-26T11:20:16.243Z,76.000000
2022-09-26T11:25:18.456Z,76.533333
2022-09-26T11:30:21.036Z,77.000000
2022-09-26T11:35:23.150Z,77.000000
2022-09-26T11:40:25.715Z,77.333333
2022-09-26T11:45:28.495Z,79.200000
2022-09-26T11:50:31.339Z,80.800000
2022-09-26T11:55:33.550Z,81.733333
2022-09-26T12:00:36.054Z,82.266667
2022-09-26T12:05:18.120Z,82.133333
2022-09-26T12:10:20.617Z,81.000000
2022-09-26T12:15:22.934Z,81.214286
2022-09-26T12:20:25.438Z,82.066667
2022-09-26T12:25:27.650Z,83.000000
2022-09-26T12:30:29.963Z,83.000000
2022-09-26T12:35:32.405Z,83.000000
2022-09-26T12:40:34.844Z,82.000000
2022-09-26T12:45:16.843Z,82.066667
2022-09-26T12:50:19.538Z,83.000000
2022-09-26T12:55:21.738Z,82.266667
2022-09-26T13:00:23.993Z,79.642857
2022-09-26T13:05:26.297Z,76.533333
2022-09-26T13:10:28.654Z,73.600000
2022-09-26T13:15:30.761Z,74.466667
2022-09-26T13:20:33.013Z,76.466667
2022-09-26T13:25:35.246Z,79.866667
2022-09-26T13:30:17.468Z,82.533333
2022-09-26T13:35:19.807Z,83.866667
2022-09-26T13:40:22.642Z,83.428571
2022-09-26T13:45:24.698Z,83.000000
2022-09-26T13:50:26.944Z,81.466667
2022-09-26T13:55:29.098Z,79.200000
2022-09-26T14:00:31.828Z,78.200000
2022-09-26T14:05:34.093Z,76.666667
2022-09-26T14:10:36.041Z,75.800000
2022-09-26T14:15:18.001Z,74.133333
2022-09-26T14:20:20.235Z,73.800000
2022-09-26T14:25:22.497Z,72.214286
2022-09-26T14:30:24.696Z,72.133333
2022-09-26T14:35:27.278Z,72.000000
2022-09-26T14:40:29.878Z,72.533333
2022-09-26T14:45:31.853Z,71.400000
2022-09-26T14:50:34.064Z,70.800000
2022-09-26T14:55:16.165Z,71.733333
2022-09-26T15:00:18.553Z,69.600000
2022-09-26T15:05:20.772Z,67.000000
2022-09-26T15:10:23.116Z,69.357143
2022-09-26T15:15:25.438Z,68.866667
2022-09-26T15:20:27.688Z,68.466667
2022-09-26T15:25:29.958Z,67.600000
2022-09-26T15:30:32.190Z,67.200000
2022-09-26T15:35:34.443Z,63.600000
2022-09-26T15:40:17.194Z,64.800000
2022-09-26T15:45:19.545Z,64.933333
2022-09-26T15:50:21.619Z,62.200000
2022-09-26T15:55:23.639Z,60.785714
2022-09-26T16:00:25.799Z,59.200000
2022-09-26T16:05:28.110Z,56.666667
2022-09-26T16:10:30.279Z,56.266667
2022-09-26T16:15:32.712Z,54.000000
2022-09-26T16:20:34.695Z,52.333333
2022-09-26T16:25:16.742Z,52.533333
2022-09-26T16:30:18.936Z,51.800000
2022-09-26T16:35:23.051Z,50.266667
2022-09-26T16:40:23.565Z,50.642857
2022-09-26T16:45:26.220Z,52.200000
2022-09-26T16:50:28.026Z,51.533333
2022-09-26T16:55:30.386Z,50.400000
2022-09-26T17:00:32.380Z,51.533333
2022-09-26T17:05:34.748Z,50.933333
2022-09-26T17:10:16.739Z,48.600000
2022-09-26T17:15:18.875Z,48.933333
2022-09-26T17:20:21.268Z,49.000000
2022-09-26T17:25:23.516Z,46.357143
2022-09-26T17:30:25.670Z,44.066667
2022-09-26T17:35:28.199Z,44.466667
2022-09-26T17:40:30.490Z,43.466667
2022-09-26T17:45:32.913Z,42.866667
2022-09-26T17:50:35.430Z,43.800000
2022-09-26T17:55:17.019Z,43.933333
2022-09-26T18:00:19.328Z,42.533333
2022-09-26T18:05:21.521Z,41.866667
2022-09-26T18:10:23.820Z,42.785714
2022-09-26T18:15:26.194Z,41.933333
2022-09-26T18:20:28.229Z,41.533333
2022-09-26T18:25:30.421Z,40.800000
2022-09-26T18:30:32.719Z,40.800000
2022-09-26T18:35:35.245Z,39.866667
2022-09-26T18:40:17.063Z,40.133333
2022-09-26T18:45:19.695Z,37.800000
2022-09-26T18:50:22.035Z,37.200000
2022-09-26T18:55:24.085Z,36.142857
2022-09-26T19:00:26.325Z,35.800000
2022-09-26T19:05:28.785Z,35.600000
2022-09-26T19:10:30.725Z,35.933333
2022-09-26T19:15:33.056Z,34.866667
2022-09-26T19:20:35.388Z,36.933333
2022-09-26T19:25:17.272Z,37.333333
2022-09-26T19:30:19.479Z,37.266667
2022-09-26T19:35:21.876Z,36.666667
2022-09-26T19:40:24.146Z,36.285714
2022-09-26T19:45:38.415Z,35.933333
2022-09-26T19:50:28.529Z,35.066667
2022-09-26T19:55:30.828Z,34.800000
2022-09-26T20:00:33.079Z,36.266667
2022-09-26T20:05:35.380Z,36.333333
2022-09-26T20:10:17.413Z,36.866667
2022-09-26T20:15:19.783Z,35.800000
2022-09-26T20:20:22.012Z,35.466667
2022-09-26T20:25:26.860Z,36.285714
2022-09-26T20:30:26.907Z,34.066667
2022-09-26T20:35:33.098Z,36.066667
2022-09-26T20:40:31.543Z,36.266667
2022-09-26T20:45:33.855Z,35.866667
2022-09-26T20:50:16.113Z,34.071429
2022-09-26T20:55:18.284Z,35.000000
2022-09-26T21:00:20.518Z,33.466667
2022-09-26T21:05:23.248Z,34.285714
2022-09-26T21:10:25.417Z,33.933333
2022-09-26T21:15:27.785Z,32.666667
2022-09-26T21:20:30.318Z,31.400000
2022-09-26T21:25:32.495Z,33.000000
2022-09-26T21:30:36.019Z,32.666667
2022-09-26T21:35:16.975Z,33.466667
2022-09-26T21:40:19.388Z,31.066667
2022-09-26T21:45:27.157Z,31.000000
2022-09-26T21:50:24.071Z,32.928571
2022-09-26T21:55:26.658Z,32.000000
2022-09-26T22:00:28.872Z,31.133333
2022-09-26T22:05:31.217Z,29.266667
2022-09-26T22:10:33.735Z,29.866667
2022-09-26T22:15:35.796Z,27.666667
2022-09-26T22:20:17.794Z,28.733333
2022-09-26T22:25:20.228Z,28.666667
2022-09-26T22:30:22.353Z,27.357143
2022-09-26T22:35:24.626Z,28.000000
2022-09-26T22:40:26.991Z,25.600000
2022-09-26T22:45:29.419Z,26.733333
2022-09-26T22:50:31.838Z,26.866667
2022-09-26T22:55:34.149Z,27.200000
2022-09-26T23:00:16.131Z,28.333333
2022-09-26T23:05:18.540Z,28.333333
2022-09-26T23:10:20.610Z,28.800000
2022-09-26T23:15:22.773Z,28.642857
2022-09-26T23:20:25.097Z,28.466667
2022-09-26T23:25:27.258Z,25.066667
2022-09-26T23:30:29.590Z,25.333333
2022-09-26T23:35:31.957Z,25.533333
2022-09-26T23:40:34.049Z,26.866667
2022-09-26T23:45:16.158Z,27.933333
2022-09-26T23:50:18.636Z,27.800000
2022-09-26T23:55:20.981Z,28.133333
